Time;durP1;ratioP1;P1;durP2;ratioP2;P2;SDS_P1;SDS_P2;PMS_P1;PMS_P2;Temp;Humidity;BMP_temperature;BMP_pressure;BME280_temperature;BME280_humidity;BME280_pressure;Samples;Min_cycle;Max_cycle;Signal;HPM_P1;HPM_P2
2022/10/24 00:01:21;;;;;;;0.45;0.45;;;11.50;99.90;;;;;;6239387;23;20468;-78
2022/10/24 00:03:50;;;;;;;0.43;0.43;;;11.60;99.90;;;;;;6238771;22;20397;-78
2022/10/24 00:06:18;;;;;;;0.87;0.80;;;11.70;99.90;;;;;;6238680;23;20881;-78
2022/10/24 00:08:46;;;;;;;0.40;0.40;;;11.80;99.90;;;;;;6237504;23;20390;-78
2022/10/24 00:11:17;;;;;;;0.60;0.60;;;12.00;99.90;;;;;;6238964;22;20397;-78
2022/10/24 00:13:44;;;;;;;0.70;0.60;;;12.00;99.90;;;;;;6202137;22;820526;-78
2022/10/24 00:16:11;;;;;;;3.70;0.90;;;12.00;99.90;;;;;;6238248;23;20907;-78
2022/10/24 00:18:38;;;;;;;0.70;0.70;;;11.90;99.90;;;;;;6240242;22;20398;-78
2022/10/24 00:21:06;;;;;;;0.90;0.70;;;11.80;99.90;;;;;;6250075;22;20451;-78
2022/10/24 00:23:36;;;;;;;2.00;0.90;;;11.70;99.90;;;;;;6239391;22;20405;-78
2022/10/24 00:26:06;;;;;;;0.38;0.38;;;11.60;99.90;;;;;;6240265;23;20422;-78
2022/10/24 00:28:35;;;;;;;1.43;0.60;;;11.60;99.90;;;;;;6239469;23;20386;-78
2022/10/24 00:31:03;;;;;;;0.80;0.60;;;11.50;99.90;;;;;;6238996;22;20402;-78
2022/10/24 00:33:30;;;;;;;0.50;0.50;;;11.50;99.90;;;;;;6232497;22;20870;-78
2022/10/24 00:35:57;;;;;;;1.27;0.45;;;11.50;99.90;;;;;;6239077;23;20390;-78
2022/10/24 00:38:24;;;;;;;0.60;0.60;;;11.50;99.90;;;;;;6239882;23;20885;-78
2022/10/24 00:40:51;;;;;;;0.50;0.50;;;11.40;99.90;;;;;;6238419;23;20401;-78
2022/10/24 00:43:21;;;;;;;0.63;0.63;;;11.30;99.90;;;;;;6239263;23;20444;-78
2022/10/24 00:45:59;;;;;;;0.45;0.45;;;11.30;99.90;;;;;;6239957;22;20393;-78
2022/10/24 00:48:27;;;;;;;0.70;0.70;;;11.20;99.90;;;;;;6249956;22;20386;-78
2022/10/24 00:51:01;;;;;;;0.60;0.60;;;11.20;99.90;;;;;;6239831;22;20394;-78
2022/10/24 00:53:30;;;;;;;0.40;0.40;;;11.20;99.90;;;;;;6239452;22;20416;-78
2022/10/24 00:56:00;;;;;;;0.50;0.50;;;11.20;99.90;;;;;;6239836;23;20388;-78
2022/10/24 00:58:29;;;;;;;0.77;0.70;;;11.20;99.90;;;;;;6238614;23;20428;-78
2022/10/24 01:00:56;;;;;;;0.60;0.60;;;11.10;99.90;;;;;;6239279;22;20416;-78
2022/10/24 01:03:29;;;;;;;2.20;0.50;;;11.10;99.90;;;;;;6239222;23;20386;-78
2022/10/24 01:06:16;;;;;;;0.63;0.63;;;11.00;99.90;;;;;;6238517;23;20409;-78
2022/10/24 01:08:50;;;;;;;0.45;0.45;;;10.90;99.90;;;;;;6239762;23;20455;-78
2022/10/24 01:11:35;;;;;;;0.43;0.43;;;10.90;99.90;;;;;;6239836;22;20389;-78
2022/10/24 01:14:26;;;;;;;0.35;0.35;;;10.80;99.90;;;;;;6239225;22;20386;-78
2022/10/24 01:17:15;;;;;;;0.60;0.60;;;10.80;99.90;;;;;;6239717;22;20891;-79
2022/10/24 01:20:21;;;;;;;0.40;0.40;;;10.70;99.90;;;;;;6240204;23;20397;-78
2022/10/24 01:23:00;;;;;;;0.28;0.28;;;10.70;99.90;;;;;;6239940;23;20475;-78
2022/10/24 01:25:46;;;;;;;1.10;0.50;;;10.80;99.90;;;;;;6248667;23;20400;-78
2022/10/24 01:28:20;;;;;;;0.27;0.27;;;10.70;99.90;;;;;;6239476;23;20408;-78
2022/10/24 01:30:59;;;;;;;0.80;0.57;;;10.60;99.90;;;;;;6239851;22;20554;-78
2022/10/24 01:33:39;;;;;;;0.30;0.30;;;10.60;99.90;;;;;;6247902;23;20382;-78
2022/10/24 01:36:36;;;;;;;0.45;0.45;;;10.60;99.90;;;;;;6239841;22;20444;-78
2022/10/24 01:39:12;;;;;;;0.40;0.33;;;10.60;99.90;;;;;;6239815;22;20452;-78
2022/10/24 01:41:40;;;;;;;0.43;0.43;;;10.60;99.90;;;;;;6240039;22;20394;-78
2022/10/24 01:44:32;;;;;;;0.30;0.30;;;10.70;99.90;;;;;;6238713;22;20389;-78
2022/10/24 01:47:05;;;;;;;1.30;0.50;;;10.70;99.90;;;;;;6239655;22;20390;-78
2022/10/24 01:49:36;;;;;;;0.73;0.55;;;10.70;99.90;;;;;;6238309;23;20402;-78
2022/10/24 01:52:10;;;;;;;0.40;0.40;;;10.70;99.90;;;;;;6239517;22;20416;-78
2022/10/24 01:54:45;;;;;;;1.30;0.67;;;10.70;99.90;;;;;;6238775;22;20389;-78
2022/10/24 01:57:13;;;;;;;0.50;0.50;;;10.60;99.90;;;;;;6238196;23;20400;-79
2022/10/24 01:59:50;;;;;;;0.47;0.47;;;10.50;99.90;;;;;;6239707;22;20405;-78
2022/10/24 02:02:25;;;;;;;0.40;0.40;;;10.40;99.90;;;;;;6238355;23;20718;-78
2022/10/24 02:05:03;;;;;;;1.23;0.52;;;10.40;99.90;;;;;;6237767;23;20394;-78
2022/10/24 02:07:32;;;;;;;0.30;0.30;;;10.40;99.90;;;;;;6239601;22;20428;-78
2022/10/24 02:10:04;;;;;;;1.20;0.45;;;10.40;99.90;;;;;;6239635;22;20464;-78
2022/10/24 02:12:37;;;;;;;1.40;0.77;;;10.40;99.90;;;;;;6240304;22;20905;-78
2022/10/24 02:15:13;;;;;;;1.40;0.50;;;10.50;99.90;;;;;;6239127;23;20402;-78
2022/10/24 02:17:39;;;;;;;0.98;0.52;;;10.50;99.90;;;;;;6240994;22;20390;-78
2022/10/24 02:20:10;;;;;;;0.30;0.30;;;10.50;99.90;;;;;;6241223;23;20394;-78
2022/10/24 02:22:37;;;;;;;0.50;0.50;;;10.50;99.90;;;;;;6241120;22;20400;-78
2022/10/24 02:25:12;;;;;;;0.50;0.50;;;10.50;99.90;;;;;;6250371;23;20416;-78
2022/10/24 02:27:45;;;;;;;0.50;0.50;;;10.50;99.90;;;;;;6239661;23;20460;-78
2022/10/24 02:30:17;;;;;;;0.70;0.50;;;10.60;99.90;;;;;;6241682;22;20420;-78
2022/10/24 02:32:51;;;;;;;0.60;0.60;;;10.60;99.90;;;;;;6251689;23;20468;-78
2022/10/24 02:35:23;;;;;;;0.90;0.40;;;10.60;99.90;;;;;;6239375;23;20390;-78
2022/10/24 02:37:54;;;;;;;0.65;0.65;;;10.70;99.90;;;;;;6241108;22;20394;-78
2022/10/24 02:40:21;;;;;;;0.63;0.63;;;10.60;99.90;;;;;;6241838;22;20780;-78
2022/10/24 02:42:53;;;;;;;0.88;0.52;;;10.50;99.90;;;;;;6240877;22;20390;-78
2022/10/24 02:45:22;;;;;;;0.50;0.50;;;10.50;99.90;;;;;;6241006;22;20459;-78
2022/10/24 02:47:53;;;;;;;2.03;0.70;;;10.50;99.90;;;;;;6238917;23;20394;-77
2022/10/24 02:50:20;;;;;;;0.60;0.60;;;10.40;99.90;;;;;;6241080;22;20393;-78
2022/10/24 02:52:47;;;;;;;1.33;0.77;;;10.30;99.90;;;;;;6250821;22;20415;-78
2022/10/24 02:55:17;;;;;;;4.30;0.90;;;10.30;99.90;;;;;;6250585;22;20393;-78
2022/10/24 02:57:43;;;;;;;1.95;1.08;;;10.20;99.90;;;;;;6240873;23;20456;-78
2022/10/24 03:00:10;;;;;;;0.50;0.50;;;10.20;99.90;;;;;;6238652;23;20696;-77
2022/10/24 03:02:37;;;;;;;0.50;0.50;;;10.20;99.90;;;;;;6239194;23;20972;-78
2022/10/24 03:05:04;;;;;;;0.70;0.70;;;10.30;99.90;;;;;;6240180;23;20389;-77
2022/10/24 03:07:31;;;;;;;0.50;0.50;;;10.20;99.90;;;;;;6240795;22;20385;-78
2022/10/24 03:09:58;;;;;;;1.27;0.68;;;10.20;99.90;;;;;;6239129;23;20390;-78
2022/10/24 03:12:27;;;;;;;0.55;0.55;;;10.30;99.90;;;;;;6250362;23;20493;-78
2022/10/24 03:14:56;;;;;;;0.60;0.40;;;10.40;99.90;;;;;;6239901;22;20393;-78
2022/10/24 03:17:26;;;;;;;0.70;0.70;;;10.40;99.90;;;;;;6240965;23;20762;-78
2022/10/24 03:19:52;;;;;;;0.57;0.57;;;10.40;99.90;;;;;;6240431;23;20394;-78
2022/10/24 03:22:19;;;;;;;0.47;0.47;;;10.40;99.90;;;;;;6240867;23;20394;-78
2022/10/24 03:24:46;;;;;;;1.10;1.00;;;10.40;99.90;;;;;;6239628;23;20400;-78
2022/10/24 03:27:21;;;;;;;0.53;0.53;;;10.40;99.90;;;;;;6240589;23;20409;-78
2022/10/24 03:29:48;;;;;;;0.90;0.50;;;10.40;99.90;;;;;;6238566;23;20390;-78
2022/10/24 03:32:15;;;;;;;0.30;0.30;;;10.40;99.90;;;;;;6240867;23;20398;-78
2022/10/24 03:34:44;;;;;;;0.38;0.38;;;10.50;99.90;;;;;;6238178;23;20404;-78
2022/10/24 03:37:11;;;;;;;1.90;0.40;;;10.50;99.90;;;;;;6238972;23;20389;-78
2022/10/24 03:39:38;;;;;;;0.30;0.30;;;10.50;99.90;;;;;;6240294;23;20401;-78
2022/10/24 03:42:04;;;;;;;0.75;0.55;;;10.50;99.90;;;;;;6240641;23;20397;-78
2022/10/24 03:44:31;;;;;;;0.35;0.35;;;10.40;99.90;;;;;;6238302;23;20400;-78
2022/10/24 03:47:01;;;;;;;0.47;0.47;;;10.40;99.90;;;;;;6240605;23;20389;-78
2022/10/24 03:49:28;;;;;;;0.30;0.30;;;10.40;99.90;;;;;;6240517;23;20386;-78
2022/10/24 03:51:54;;;;;;;0.40;0.40;;;10.40;99.90;;;;;;6240609;23;20405;-78
2022/10/24 03:54:21;;;;;;;0.70;0.50;;;10.50;99.90;;;;;;6237938;23;20428;-78
2022/10/24 03:56:50;;;;;;;0.50;0.38;;;10.60;99.90;;;;;;6240030;23;20953;-79
2022/10/24 03:59:19;;;;;;;0.33;0.33;;;10.70;99.90;;;;;;6238945;23;20719;-78
2022/10/24 04:01:45;;;;;;;0.22;0.22;;;10.80;99.90;;;;;;6240431;23;20778;-78
2022/10/24 04:04:17;;;;;;;0.30;0.30;;;10.80;99.90;;;;;;6239989;23;20389;-78
2022/10/24 04:06:44;;;;;;;0.50;0.50;;;10.80;99.90;;;;;;6238706;23;20386;-78
2022/10/24 04:09:11;;;;;;;0.50;0.50;;;10.70;99.90;;;;;;6240057;23;20390;-78
2022/10/24 04:11:42;;;;;;;0.60;0.45;;;10.70;99.90;;;;;;6240153;23;20393;-78
2022/10/24 04:14:12;;;;;;;0.20;0.20;;;10.70;99.90;;;;;;6239160;23;20773;-78
2022/10/24 04:16:39;;;;;;;0.47;0.47;;;10.70;99.90;;;;;;6238995;23;20385;-78
2022/10/24 04:19:06;;;;;;;0.57;0.40;;;10.80;99.90;;;;;;6240232;23;20405;-78
2022/10/24 04:21:35;;;;;;;1.30;0.43;;;10.80;99.90;;;;;;6237954;23;20932;-78
2022/10/24 04:24:02;;;;;;;0.40;0.40;;;10.90;99.90;;;;;;6239350;23;20390;-78
2022/10/24 04:26:29;;;;;;;0.50;0.50;;;10.80;99.90;;;;;;6248888;23;20745;-78
2022/10/24 04:28:56;;;;;;;0.20;0.20;;;10.90;99.90;;;;;;6239282;23;20390;-78
2022/10/24 04:31:22;;;;;;;0.50;0.32;;;10.90;99.90;;;;;;6248862;23;20382;-78
2022/10/24 04:33:49;;;;;;;0.30;0.30;;;11.00;99.90;;;;;;6238409;23;20413;-78
2022/10/24 04:36:20;;;;;;;0.80;0.40;;;11.00;99.90;;;;;;6240025;23;20389;-77
2022/10/24 04:38:46;;;;;;;0.50;0.50;;;11.00;99.90;;;;;;6239971;22;20386;-78
2022/10/24 04:41:13;;;;;;;0.30;0.25;;;11.00;99.90;;;;;;6238578;23;20394;-78
2022/10/24 04:43:40;;;;;;;0.95;0.30;;;11.10;99.90;;;;;;6239140;23;20394;-78
2022/10/24 04:46:07;;;;;;;0.30;0.30;;;11.10;99.90;;;;;;6239631;23;20400;-78
2022/10/24 04:48:33;;;;;;;0.32;0.32;;;11.10;99.90;;;;;;6238186;23;20452;-78
2022/10/24 04:51:03;;;;;;;0.30;0.30;;;11.10;99.90;;;;;;6239660;22;20382;-78
2022/10/24 04:53:29;;;;;;;0.30;0.30;;;11.10;99.90;;;;;;6239561;22;20403;-78
2022/10/24 04:55:56;;;;;;;0.30;0.30;;;11.00;99.90;;;;;;6239809;23;20412;-78
2022/10/24 04:58:23;;;;;;;0.60;0.60;;;11.00;99.90;;;;;;6238437;23;20459;-78
2022/10/24 05:00:50;;;;;;;0.30;0.30;;;11.00;99.90;;;;;;6239631;23;20467;-78
2022/10/24 05:03:21;;;;;;;0.30;0.30;;;11.00;99.90;;;;;;6239451;23;20475;-78
2022/10/24 05:05:48;;;;;;;0.45;0.45;;;10.90;99.90;;;;;;6237900;23;20416;-78
2022/10/24 05:08:16;;;;;;;1.70;0.63;;;10.70;99.90;;;;;;6239754;22;20444;-78
2022/10/24 05:10:43;;;;;;;0.40;0.40;;;10.70;99.90;;;;;;6249661;22;20393;-78
2022/10/24 05:13:09;;;;;;;0.43;0.43;;;10.50;99.90;;;;;;6238984;23;20443;-78
2022/10/24 05:15:36;;;;;;;0.30;0.30;;;10.50;99.90;;;;;;6237676;23;20386;-78
2022/10/24 05:18:03;;;;;;;0.30;0.30;;;10.30;99.90;;;;;;6238455;23;20389;-78
2022/10/24 05:20:30;;;;;;;0.25;0.25;;;10.30;99.90;;;;;;6250213;22;20385;-78
2022/10/24 05:22:57;;;;;;;0.40;0.30;;;10.30;99.90;;;;;;6247962;23;20439;-78
2022/10/24 05:25:23;;;;;;;0.20;0.20;;;10.30;99.90;;;;;;6237972;23;20397;-78
2022/10/24 05:27:50;;;;;;;0.60;0.60;;;10.40;99.90;;;;;;6238173;23;20440;-77
2022/10/24 05:30:17;;;;;;;0.30;0.30;;;10.50;99.90;;;;;;6237617;23;20389;-78
2022/10/24 05:32:44;;;;;;;2.97;0.43;;;10.50;99.90;;;;;;6249579;23;20397;-78
2022/10/24 05:35:12;;;;;;;0.30;0.30;;;10.40;99.90;;;;;;6237322;23;20394;-78
2022/10/24 05:37:39;;;;;;;0.20;0.20;;;10.30;99.90;;;;;;6239358;22;20409;-78
2022/10/24 05:40:07;;;;;;;0.20;0.20;;;10.30;99.90;;;;;;6239303;22;21018;-78
2022/10/24 05:42:35;;;;;;;0.30;0.30;;;10.20;99.90;;;;;;6249228;22;21070;-78
2022/10/24 05:45:06;;;;;;;1.80;0.32;;;10.30;99.90;;;;;;6238760;22;20459;-78
2022/10/24 05:47:33;;;;;;;0.60;0.60;;;10.40;99.90;;;;;;6241295;22;20393;-78
2022/10/24 05:50:00;;;;;;;0.25;0.25;;;10.40;99.90;;;;;;6241343;22;20389;-78
2022/10/24 05:52:29;;;;;;;0.28;0.28;;;10.40;99.90;;;;;;6241673;23;20393;-78
2022/10/24 05:54:55;;;;;;;0.65;0.60;;;10.30;99.90;;;;;;6240693;23;20444;-78
2022/10/24 05:57:34;;;;;;;0.30;0.30;;;10.40;99.90;;;;;;6241738;23;20476;-78
2022/10/24 06:00:01;;;;;;;0.70;0.70;;;10.30;99.90;;;;;;6240114;23;20397;-78
2022/10/24 06:02:30;;;;;;;3.90;0.65;;;10.30;99.90;;;;;;6239911;23;20489;-78
2022/10/24 06:04:57;;;;;;;0.45;0.45;;;10.30;99.90;;;;;;6250679;23;20389;-78
2022/10/24 06:07:30;;;;;;;0.55;0.55;;;10.20;99.90;;;;;;6241181;22;20889;-78
2022/10/24 06:10:02;;;;;;;0.60;0.60;;;10.30;99.90;;;;;;6239828;23;20409;-78
2022/10/24 06:12:28;;;;;;;0.40;0.40;;;10.30;99.90;;;;;;6241705;22;20390;-78
2022/10/24 06:14:59;;;;;;;0.30;0.30;;;10.40;99.90;;;;;;6241444;23;20394;-78
2022/10/24 06:17:26;;;;;;;0.60;0.40;;;10.40;99.90;;;;;;6240034;23;20398;-78
2022/10/24 06:19:53;;;;;;;0.40;0.40;;;10.40;99.90;;;;;;6241317;22;20394;-77
2022/10/24 06:22:23;;;;;;;0.40;0.40;;;10.40;99.90;;;;;;6249842;23;20444;-78
2022/10/24 06:24:50;;;;;;;0.32;0.22;;;10.50;99.90;;;;;;6241242;22;20456;-78
2022/10/24 06:27:16;;;;;;;0.73;0.40;;;10.50;99.90;;;;;;6241339;23;20463;-78
2022/10/24 06:29:43;;;;;;;0.50;0.50;;;10.40;99.90;;;;;;6241303;23;20389;-78
2022/10/24 06:32:10;;;;;;;0.40;0.20;;;10.50;99.90;;;;;;6239508;23;20870;-78
2022/10/24 06:34:37;;;;;;;1.80;0.75;;;10.50;99.90;;;;;;6239057;23;20397;-78
2022/10/24 06:37:04;;;;;;;1.40;0.80;;;10.70;99.90;;;;;;6241272;23;20399;-78
2022/10/24 06:39:31;;;;;;;0.45;0.43;;;10.90;99.90;;;;;;6240118;23;20447;-78
2022/10/24 06:41:57;;;;;;;2.90;0.43;;;11.10;99.90;;;;;;6239781;23;20389;-78
2022/10/24 06:44:24;;;;;;;0.10;0.10;;;11.40;99.90;;;;;;6240694;23;20397;-78
2022/10/24 06:46:50;;;;;;;0.60;0.30;;;11.60;99.90;;;;;;6241162;23;20394;-78
2022/10/24 06:49:17;;;;;;;0.28;0.28;;;11.70;99.90;;;;;;6239110;23;20969;-78
2022/10/24 06:51:44;;;;;;;0.45;0.45;;;11.80;99.90;;;;;;6241017;23;20390;-78
2022/10/24 06:54:14;;;;;;;0.65;0.40;;;11.90;99.90;;;;;;6240684;23;20452;-78
2022/10/24 06:56:41;;;;;;;0.30;0.30;;;12.00;99.90;;;;;;6239662;23;20396;-78
2022/10/24 06:59:10;;;;;;;0.10;0.10;;;12.00;99.90;;;;;;6241038;22;20443;-78
2022/10/24 07:01:41;;;;;;;1.17;0.35;;;12.10;99.90;;;;;;6249932;23;20390;-78
2022/10/24 07:04:10;;;;;;;0.35;0.35;;;12.10;99.90;;;;;;6250832;22;20766;-78
2022/10/24 07:06:37;;;;;;;0.37;0.27;;;12.20;99.90;;;;;;6240858;23;20518;-79
2022/10/24 07:09:06;;;;;;;0.40;0.40;;;12.20;99.90;;;;;;6240932;22;20449;-79
2022/10/24 07:11:39;;;;;;;0.30;0.30;;;12.20;99.90;;;;;;6240722;22;20385;-79
2022/10/24 07:14:08;;;;;;;1.33;0.43;;;12.30;99.90;;;;;;6240110;23;20448;-79
2022/10/24 07:16:35;;;;;;;0.63;0.40;;;12.30;99.90;;;;;;6239472;23;20497;-79
2022/10/24 07:19:02;;;;;;;0.20;0.20;;;12.40;99.90;;;;;;6240719;22;20394;-79
2022/10/24 07:21:30;;;;;;;1.17;0.70;;;12.40;99.90;;;;;;6251303;22;20435;-78
2022/10/24 07:23:58;;;;;;;0.20;0.20;;;12.50;99.90;;;;;;6240487;22;20890;-79
2022/10/24 07:26:26;;;;;;;0.90;0.60;;;12.50;99.90;;;;;;6240364;22;20389;-79
2022/10/24 07:28:55;;;;;;;0.55;0.55;;;12.60;99.90;;;;;;6240433;22;20390;-79
2022/10/24 07:31:24;;;;;;;1.40;0.50;;;12.70;99.90;;;;;;6240354;22;20393;-79
2022/10/24 07:33:53;;;;;;;0.30;0.30;;;12.70;99.90;;;;;;6240076;22;20940;-79
2022/10/24 07:36:22;;;;;;;0.40;0.30;;;12.70;99.90;;;;;;6238889;23;20968;-80
2022/10/24 07:38:51;;;;;;;3.00;0.73;;;12.80;99.90;;;;;;6249155;23;20386;-79
2022/10/24 07:41:18;;;;;;;0.45;0.45;;;12.90;99.90;;;;;;6239782;22;20382;-79
2022/10/24 07:43:50;;;;;;;4.90;0.80;;;12.90;99.90;;;;;;6238922;23;20399;-79
2022/10/24 07:46:20;;;;;;;1.30;0.60;;;13.00;99.90;;;;;;6240696;22;20390;-79
2022/10/24 07:48:50;;;;;;;2.58;0.63;;;13.10;99.90;;;;;;6239329;23;20432;-79
2022/10/24 07:51:18;;;;;;;0.53;0.53;;;13.20;99.90;;;;;;6240716;22;20390;-79
2022/10/24 07:53:49;;;;;;;0.50;0.40;;;13.40;99.90;;;;;;6239954;22;20428;-80
2022/10/24 07:56:16;;;;;;;1.65;0.45;;;13.50;99.90;;;;;;6247893;23;20765;-79
2022/10/24 07:58:44;;;;;;;1.70;0.35;;;13.60;99.90;;;;;;6240274;22;20397;-79
2022/10/24 08:01:16;;;;;;;0.50;0.50;;;13.70;99.90;;;;;;6240300;22;20417;-80
2022/10/24 08:03:43;;;;;;;5.57;0.67;;;13.90;99.90;;;;;;6240065;22;20390;-79
2022/10/24 08:06:13;;;;;;;1.30;0.68;;;14.10;99.90;;;;;;6238958;23;20522;-79
2022/10/24 08:08:39;;;;;;;2.08;0.60;;;14.30;93.40;;;;;;6239719;22;20940;-79
2022/10/24 08:11:09;;;;;;;0.47;0.47;;;14.50;8.20;;;;;;6237907;23;20866;-78
2022/10/24 08:13:35;;;;;;;1.70;0.60;;;14.60;1.00;;;;;;6237427;23;20862;-79
2022/10/24 08:16:08;;;;;;;0.82;0.70;;;14.70;1.00;;;;;;6240108;22;20488;-78
2022/10/24 08:18:35;;;;;;;1.60;0.50;;;14.90;1.00;;;;;;6240158;22;20770;-78
2022/10/24 08:21:08;;;;;;;5.20;0.95;;;15.00;1.00;;;;;;6238588;23;20400;-79
2022/10/24 08:23:36;;;;;;;0.50;0.50;;;15.00;99.90;;;;;;6249464;22;20640;-79
2022/10/24 08:26:04;;;;;;;4.20;0.70;;;15.10;99.90;;;;;;6250331;22;20405;-79
2022/10/24 08:28:31;;;;;;;2.70;0.80;;;15.30;1.00;;;;;;6241833;22;20447;-78
2022/10/24 08:31:00;;;;;;;2.47;0.83;;;15.40;1.00;;;;;;6240205;22;20922;-80
2022/10/24 08:33:30;;;;;;;3.80;0.95;;;15.60;1.00;;;;;;6239124;22;20394;-78
2022/10/24 08:36:02;;;;;;;1.45;0.63;;;15.70;10.20;;;;;;6239648;23;20958;-78
2022/10/24 08:38:29;;;;;;;2.35;0.90;;;15.70;99.90;;;;;;6239608;22;20862;-78
2022/10/24 08:40:57;;;;;;;1.70;1.00;;;15.90;1.00;;;;;;6239961;23;20390;-79
2022/10/24 08:43:24;;;;;;;1.40;0.60;;;16.00;1.00;;;;;;6239173;22;20448;-78
2022/10/24 08:46:22;;;;;;;0.60;0.60;;;16.30;99.90;;;;;;6239899;22;20394;-78
2022/10/24 08:49:10;;;;;;;3.42;0.70;;;16.80;29.90;;;;;;6238625;23;20595;-78
2022/10/24 08:52:03;;;;;;;0.68;0.60;;;17.10;99.90;;;;;;6237992;23;20393;-79
2022/10/24 08:54:35;;;;;;;3.67;0.70;;;17.50;1.00;;;;;;6236772;23;20389;-78
2022/10/24 08:57:04;;;;;;;0.50;0.50;;;17.90;99.90;;;;;;6238364;23;20394;-78
2022/10/24 08:59:34;;;;;;;1.05;0.50;;;17.80;1.00;;;;;;6240103;22;20389;-77
2022/10/24 09:02:06;;;;;;;0.63;0.63;;;17.70;8.40;;;;;;6237983;23;20893;-78
2022/10/24 09:05:04;;;;;;;0.70;0.70;;;17.70;1.00;;;;;;6237885;23;20459;-77
2022/10/24 09:07:34;;;;;;;1.00;0.82;;;17.50;30.90;;;;;;6223480;23;20398;-77
2022/10/24 09:10:19;;;;;;;4.10;0.90;;;17.20;65.50;;;;;;6249932;23;20447;-77
2022/10/24 09:12:45;;;;;;;2.20;0.70;;;17.30;99.90;;;;;;6239930;22;20464;-77
2022/10/24 09:15:24;;;;;;;1.70;0.70;;;17.50;99.90;;;;;;6237297;23;20776;-78
2022/10/24 09:17:52;;;;;;;1.10;0.80;;;17.70;99.90;;;;;;6239552;22;20861;-78
2022/10/24 09:20:24;;;;;;;0.70;0.70;;;17.90;1.00;;;;;;6238435;23;20397;-78
2022/10/24 09:22:54;;;;;;;1.53;0.67;;;17.90;1.00;;;;;;6241961;22;20401;-78
2022/10/24 09:25:24;;;;;;;1.50;1.00;;;18.00;1.00;;;;;;6242311;22;20400;-78
2022/10/24 09:27:53;;;;;;;0.63;0.63;;;18.10;1.00;;;;;;6252790;22;20389;-78
2022/10/24 09:30:26;;;;;;;0.85;0.65;;;18.40;1.00;;;;;;6253844;23;20389;-77
2022/10/24 09:33:12;;;;;;;0.60;0.60;;;18.70;1.00;;;;;;6239836;23;20390;-78
2022/10/24 09:35:42;;;;;;;1.25;0.93;;;19.20;1.00;;;;;;6241845;22;20419;-78
2022/10/24 09:38:41;;;;;;;0.90;0.90;;;19.30;99.90;;;;;;6241246;22;20900;-78
2022/10/24 09:41:27;;;;;;;0.43;0.43;;;19.60;99.90;;;;;;6128381;23;20463;-80
2022/10/24 09:43:59;;;;;;;0.77;0.77;;;19.90;99.90;;;;;;6093802;23;20419;-78
2022/10/24 09:46:33;;;;;;;1.17;0.63;;;19.50;99.90;;;;;;6127661;23;20447;-78
2022/10/24 09:49:17;;;;;;;1.52;0.80;;;19.30;99.90;;;;;;6118524;23;20447;-79
2022/10/24 09:51:47;;;;;;;0.70;0.70;;;19.30;99.90;;;;;;6118612;23;20940;-78
2022/10/24 09:54:19;;;;;;;2.10;0.80;;;19.20;99.90;;;;;;6128076;23;20393;-79
2022/10/24 09:57:07;;;;;;;1.25;0.73;;;19.30;99.90;;;;;;6128403;23;20844;-78
2022/10/24 09:59:48;;;;;;;5.15;0.63;;;19.70;99.90;;;;;;6117162;23;20487;-79
2022/10/24 10:02:19;;;;;;;0.50;0.50;;;19.80;99.90;;;;;;6118253;23;20396;-78
2022/10/24 10:04:49;;;;;;;1.60;0.47;;;19.70;99.90;;;;;;6118181;23;20927;-79
2022/10/24 10:07:19;;;;;;;1.00;0.60;;;19.30;99.90;;;;;;6118437;23;20407;-79
2022/10/24 10:09:52;;;;;;;1.20;0.82;;;19.30;99.90;;;;;;6118591;23;20464;-78
2022/10/24 10:12:48;;;;;;;0.73;0.73;;;19.50;99.90;;;;;;6118531;23;20392;-78
2022/10/24 10:15:18;;;;;;;0.73;0.73;;;19.50;99.90;;;;;;6117534;23;20448;-79
2022/10/24 10:17:50;;;;;;;3.15;0.47;;;19.80;99.90;;;;;;6187765;23;20402;-79
2022/10/24 10:20:40;;;;;;;0.65;0.65;;;20.30;99.90;;;;;;6241633;22;20405;-78
2022/10/24 10:23:24;;;;;;;1.55;0.70;;;20.60;99.90;;;;;;6239235;23;20774;-78
2022/10/24 10:26:17;;;;;;;1.30;0.52;;;20.60;99.90;;;;;;6250898;22;20389;-80
2022/10/24 10:29:16;;;;;;;0.65;0.63;;;20.10;99.90;;;;;;6241064;23;20393;-79
2022/10/24 10:31:46;;;;;;;1.35;0.80;;;19.60;99.90;;;;;;6117793;23;20405;-78
2022/10/24 10:34:20;;;;;;;1.70;0.60;;;19.50;99.90;;;;;;6117186;23;20794;-79
2022/10/24 10:36:58;;;;;;;0.55;0.55;;;19.80;99.90;;;;;;6118118;23;20400;-78
2022/10/24 10:40:11;;;;;;;0.60;0.60;;;20.20;99.90;;;;;;6118111;23;20396;-79
2022/10/24 10:42:52;;;;;;;0.52;0.52;;;20.60;99.90;;;;;;6117640;23;20401;-78
2022/10/24 10:45:39;;;;;;;0.50;0.50;;;21.00;99.90;;;;;;6127908;23;20440;-79
2022/10/24 10:48:31;;;;;;;0.75;0.68;;;21.50;99.90;;;;;;6118248;23;20400;-79
2022/10/24 10:51:43;;;;;;;0.47;0.47;;;21.60;99.90;;;;;;6118089;23;20404;-80
2022/10/24 10:54:34;;;;;;;0.70;0.60;;;22.00;99.90;;;;;;6113099;23;20797;-79
2022/10/24 10:57:16;;;;;;;0.43;0.43;;;22.10;99.90;;;;;;6103693;23;20940;-79
2022/10/24 11:00:09;;;;;;;1.27;0.57;;;21.80;99.90;;;;;;6127759;23;20396;-79
2022/10/24 11:03:00;;;;;;;0.80;0.60;;;21.60;99.90;;;;;;6118305;23;20658;-79
2022/10/24 11:06:08;;;;;;;0.50;0.50;;;21.50;99.90;;;;;;6117945;23;20817;-79
2022/10/24 11:08:54;;;;;;;0.60;0.57;;;21.50;99.90;;;;;;6181114;22;20390;-78
2022/10/24 11:11:28;;;;;;;0.40;0.40;;;21.20;99.90;;;;;;6240695;23;20730;-78
2022/10/24 11:14:15;;;;;;;0.52;0.43;;;21.00;99.90;;;;;;6238220;23;20385;-79
2022/10/24 11:16:45;;;;;;;0.45;0.40;;;21.20;99.90;;;;;;6240688;22;20400;-78
2022/10/24 11:19:39;;;;;;;0.57;0.57;;;20.70;99.90;;;;;;6249236;23;20880;-78
2022/10/24 11:22:14;;;;;;;0.98;0.68;;;20.50;99.90;;;;;;6250732;22;20873;-78
2022/10/24 11:24:50;;;;;;;1.20;0.57;;;20.40;99.90;;;;;;6238684;23;20394;-78
2022/10/24 11:27:27;;;;;;;0.50;0.50;;;20.40;99.90;;;;;;6240671;22;20390;-77
2022/10/24 11:30:16;;;;;;;0.47;0.47;;;20.50;99.90;;;;;;6250628;22;20947;-78
2022/10/24 11:32:57;;;;;;;0.75;0.75;;;20.50;99.90;;;;;;6250793;22;20389;-78
2022/10/24 11:35:27;;;;;;;2.63;0.70;;;20.40;99.90;;;;;;6251204;22;20761;-78
2022/10/24 11:38:03;;;;;;;0.70;0.70;;;20.60;99.90;;;;;;6240704;22;20448;-78
2022/10/24 11:40:31;;;;;;;0.57;0.57;;;20.70;99.90;;;;;;6239358;23;20386;-78
2022/10/24 11:43:20;;;;;;;0.30;0.30;;;20.90;99.90;;;;;;6238830;23;20428;-80
2022/10/24 11:46:11;;;;;;;1.07;0.40;;;20.90;99.90;;;;;;6238544;23;20390;-78
2022/10/24 11:49:02;;;;;;;1.08;0.57;;;20.90;99.90;;;;;;6240819;22;20451;-79
2022/10/24 11:51:36;;;;;;;1.10;0.40;;;20.90;99.90;;;;;;6126673;23;20726;-79
2022/10/24 11:54:10;;;;;;;0.28;0.28;;;20.80;99.90;;;;;;6116747;23;20765;-79
2022/10/24 11:56:59;;;;;;;0.38;0.38;;;21.20;99.90;;;;;;6117549;23;20447;-78
2022/10/24 11:59:29;;;;;;;1.30;0.30;;;21.40;99.90;;;;;;6110285;23;20400;-79
2022/10/24 12:01:59;;;;;;;0.70;0.50;;;21.40;99.90;;;;;;6117340;23;20411;-78
2022/10/24 12:04:59;;;;;;;0.35;0.30;;;21.70;99.90;;;;;;6116992;23;20397;-79
2022/10/24 12:07:26;;;;;;;1.10;0.30;;;22.30;99.90;;;;;;6117193;23;20432;-78
2022/10/24 12:10:13;;;;;;;0.35;0.35;;;22.80;99.90;;;;;;6117392;23;20917;-78
2022/10/24 12:13:30;;;;;;;0.38;0.38;;;22.90;99.90;;;;;;6117243;23;20396;-78
2022/10/24 12:16:27;;;;;;;0.40;0.40;;;23.10;99.90;;;;;;6086636;23;20400;-79
2022/10/24 12:19:11;;;;;;;0.55;0.40;;;22.70;99.90;;;;;;6105479;23;20541;-77
2022/10/24 12:21:45;;;;;;;1.40;0.40;;;22.50;99.90;;;;;;6117271;23;20683;-79
2022/10/24 12:24:47;;;;;;;0.52;0.38;;;22.80;99.90;;;;;;6116546;23;20471;-78
2022/10/24 12:27:21;;;;;;;0.30;0.30;;;23.10;99.90;;;;;;6068894;23;20404;-78
2022/10/24 12:30:05;;;;;;;0.38;0.38;;;22.70;99.90;;;;;;6146233;23;20395;-78
2022/10/24 12:32:41;;;;;;;0.47;0.38;;;22.50;99.90;;;;;;6146197;23;20454;-78
2022/10/24 12:35:26;;;;;;;0.22;0.22;;;22.60;99.90;;;;;;6145761;23;20391;-77
2022/10/24 12:37:57;;;;;;;0.30;0.30;;;22.40;99.90;;;;;;6146416;23;20493;-78
2022/10/24 12:40:45;;;;;;;0.40;0.40;;;22.30;99.90;;;;;;6145974;23;20473;-77
2022/10/24 12:43:34;;;;;;;0.45;0.40;;;22.10;99.90;;;;;;6145405;23;20455;-78
2022/10/24 12:46:15;;;;;;;0.45;0.45;;;21.90;99.90;;;;;;6146355;23;20445;-79
2022/10/24 12:48:57;;;;;;;1.70;0.60;;;22.40;99.90;;;;;;6146356;23;20461;-79
2022/10/24 12:51:29;;;;;;;0.32;0.32;;;22.30;99.90;;;;;;6146255;23;20387;-79
2022/10/24 12:54:11;;;;;;;1.10;0.40;;;22.10;99.90;;;;;;6121283;23;20391;-78
2022/10/24 12:57:04;;;;;;;1.00;0.40;;;21.80;99.90;;;;;;6145680;23;20399;-78
2022/10/24 12:59:32;;;;;;;0.32;0.32;;;22.20;99.90;;;;;;6058046;23;20400;-78
2022/10/24 13:02:28;;;;;;;0.30;0.30;;;22.60;99.90;;;;;;6081065;23;20394;-78
2022/10/24 13:05:32;;;;;;;0.65;0.32;;;23.20;99.90;;;;;;6063174;23;20446;-78
2022/10/24 13:08:12;;;;;;;0.30;0.30;;;23.60;99.90;;;;;;6063732;23;20438;-78
2022/10/24 13:10:52;;;;;;;0.50;0.50;;;24.00;99.90;;;;;;6086980;23;20898;-78
2022/10/24 13:13:55;;;;;;;0.30;0.30;;;24.10;99.90;;;;;;6087938;23;20403;-78
2022/10/24 13:16:51;;;;;;;0.30;0.30;;;24.00;99.90;;;;;;6095395;23;20407;-78
2022/10/24 13:19:23;;;;;;;0.30;0.30;;;23.80;99.90;;;;;;6073408;23;20453;-79
2022/10/24 13:21:53;;;;;;;0.35;0.35;;;23.50;99.90;;;;;;6087979;23;20759;-79